Time;durP1;ratioP1;P1;durP2;ratioP2;P2;SDS_P1;SDS_P2;PMS_P1;PMS_P2;Temp;Humidity;BMP_temperature;BMP_pressure;BME280_temperature;BME280_humidity;BME280_pressure;Samples;Min_cycle;Max_cycle;Signal;HPM_P1;HPM_P2
2024/01/23 00:00:47;;;;;;;2.30;1.00;;;10.00;99.90;;;;;;5023917;28;20214;-58
2024/01/23 00:03:14;;;;;;;3.83;1.10;;;10.00;99.90;;;;;;5022427;28;20210;-58
2024/01/23 00:05:41;;;;;;;2.80;0.90;;;10.10;99.90;;;;;;5020340;28;20214;-59
2024/01/23 00:08:08;;;;;;;2.60;1.20;;;10.10;99.90;;;;;;5020925;28;20240;-58
2024/01/23 00:10:36;;;;;;;2.40;1.00;;;10.20;99.90;;;;;;5023748;28;20222;-59
2024/01/23 00:13:03;;;;;;;3.27;1.10;;;10.30;99.90;;;;;;5023699;28;20668;-59
2024/01/23 00:15:29;;;;;;;2.03;0.90;;;10.30;99.90;;;;;;5020055;28;20231;-59
2024/01/23 00:17:56;;;;;;;2.63;1.07;;;10.30;99.90;;;;;;5020429;28;20275;-59
2024/01/23 00:20:23;;;;;;;4.83;0.90;;;10.30;99.90;;;;;;5022615;28;20202;-58
2024/01/23 00:22:49;;;;;;;2.13;0.87;;;10.40;99.90;;;;;;5023721;28;20256;-57
2024/01/23 00:25:16;;;;;;;2.70;1.00;;;10.40;99.90;;;;;;5021894;28;20210;-57
2024/01/23 00:27:44;;;;;;;1.90;0.80;;;10.40;99.90;;;;;;5020148;28;20269;-58
2024/01/23 00:30:12;;;;;;;2.33;0.90;;;10.40;99.90;;;;;;5020702;28;20227;-58
2024/01/23 00:32:39;;;;;;;4.07;1.10;;;10.30;99.90;;;;;;5023243;28;20217;-59
2024/01/23 00:35:07;;;;;;;5.53;1.20;;;10.30;99.90;;;;;;5023181;28;20668;-57
2024/01/23 00:37:34;;;;;;;2.17;0.80;;;10.40;99.90;;;;;;5012206;28;20277;-56
2024/01/23 00:40:02;;;;;;;2.83;1.23;;;10.40;99.90;;;;;;5019978;28;20211;-58
2024/01/23 00:42:29;;;;;;;3.17;0.87;;;10.40;99.90;;;;;;5022827;28;20683;-59
2024/01/23 00:44:57;;;;;;;2.37;0.80;;;10.40;99.90;;;;;;5023841;28;20624;-58
2024/01/23 00:47:23;;;;;;;3.30;0.90;;;10.30;99.90;;;;;;5020420;28;20222;-58
2024/01/23 00:49:50;;;;;;;2.50;0.77;;;10.30;99.90;;;;;;5019888;28;20645;-57
2024/01/23 00:52:17;;;;;;;1.43;0.90;;;10.30;99.90;;;;;;5025128;28;20213;-58
2024/01/23 00:54:43;;;;;;;2.20;0.90;;;10.30;99.90;;;;;;5029857;28;20506;-58
2024/01/23 00:57:10;;;;;;;3.07;1.20;;;10.40;99.90;;;;;;5028588;28;20237;-56
2024/01/23 00:59:37;;;;;;;2.73;0.90;;;10.40;99.90;;;;;;5026165;28;20217;-58
2024/01/23 01:02:05;;;;;;;4.60;1.00;;;10.40;99.90;;;;;;5026363;28;20260;-58
2024/01/23 01:04:32;;;;;;;2.20;1.13;;;10.30;99.90;;;;;;5029664;28;20206;-58
2024/01/23 01:06:58;;;;;;;4.23;1.10;;;10.30;99.90;;;;;;5029195;28;20253;-58
2024/01/23 01:09:26;;;;;;;4.37;1.10;;;10.30;99.90;;;;;;5026964;28;20226;-58
2024/01/23 01:11:53;;;;;;;4.57;1.43;;;10.30;99.90;;;;;;5026191;28;20206;-58
2024/01/23 01:14:19;;;;;;;3.83;1.10;;;10.30;99.90;;;;;;5027610;28;20214;-59
2024/01/23 01:16:46;;;;;;;3.83;1.40;;;10.30;99.90;;;;;;5029347;28;20228;-59
2024/01/23 01:19:14;;;;;;;4.53;1.30;;;10.30;99.90;;;;;;5028780;28;20265;-58
2024/01/23 01:21:41;;;;;;;4.80;1.40;;;10.30;99.90;;;;;;5026154;28;20206;-59
2024/01/23 01:24:08;;;;;;;3.50;1.00;;;10.30;99.90;;;;;;5026096;28;20202;-59
2024/01/23 01:26:35;;;;;;;6.23;1.30;;;10.30;99.90;;;;;;5017715;28;20218;-59
2024/01/23 01:29:02;;;;;;;2.47;1.10;;;10.40;99.90;;;;;;5025919;28;20241;-59
2024/01/23 01:31:29;;;;;;;5.17;1.50;;;10.40;99.90;;;;;;5028872;28;20268;-59
2024/01/23 01:33:55;;;;;;;4.30;1.33;;;10.40;99.90;;;;;;5029549;28;20634;-57
2024/01/23 01:36:23;;;;;;;2.30;1.07;;;10.30;99.90;;;;;;5027120;28;20241;-57
2024/01/23 01:38:50;;;;;;;1.47;0.87;;;10.40;99.90;;;;;;5025913;28;20302;-57
2024/01/23 01:41:17;;;;;;;2.77;1.00;;;10.50;99.90;;;;;;5026949;28;20638;-56
2024/01/23 01:43:43;;;;;;;3.43;1.10;;;10.50;99.90;;;;;;5029381;28;20285;-58
2024/01/23 01:46:15;;;;;;;3.07;1.00;;;10.50;99.90;;;;;;5028673;28;20660;-58
2024/01/23 01:48:42;;;;;;;5.33;1.27;;;10.40;99.90;;;;;;5025857;28;20234;-58
2024/01/23 01:51:10;;;;;;;4.63;1.17;;;10.40;99.90;;;;;;5025720;28;20219;-56
2024/01/23 01:53:39;;;;;;;3.93;1.00;;;10.30;99.90;;;;;;5029054;28;20198;-57
2024/01/23 01:56:07;;;;;;;3.10;1.20;;;10.30;99.90;;;;;;5029184;28;20214;-58
2024/01/23 01:58:35;;;;;;;4.33;1.30;;;10.20;99.90;;;;;;5025473;28;20301;-58
2024/01/23 02:01:02;;;;;;;7.23;1.33;;;10.20;99.90;;;;;;5025854;28;20194;-58
2024/01/23 02:03:29;;;;;;;5.57;1.30;;;10.30;99.90;;;;;;5025461;28;20309;-57
2024/01/23 02:05:58;;;;;;;4.17;1.53;;;10.30;99.90;;;;;;5025894;28;20325;-58
2024/01/23 02:08:26;;;;;;;3.53;0.93;;;10.20;99.90;;;;;;5023466;28;20224;-57
2024/01/23 02:10:55;;;;;;;4.83;1.13;;;10.20;99.90;;;;;;5022379;28;20701;-60
2024/01/23 02:13:22;;;;;;;4.07;1.23;;;10.10;99.90;;;;;;5024199;28;20635;-57
2024/01/23 02:15:48;;;;;;;3.73;1.00;;;10.10;99.90;;;;;;5025674;28;20206;-58
2024/01/23 02:18:15;;;;;;;4.70;1.47;;;10.10;99.90;;;;;;5024823;28;20230;-58
2024/01/23 02:20:42;;;;;;;6.13;1.40;;;10.10;99.90;;;;;;5022408;28;20704;-58
2024/01/23 02:23:12;;;;;;;5.40;1.40;;;10.10;99.90;;;;;;5022241;28;20203;-57
2024/01/23 02:25:40;;;;;;;4.33;1.77;;;10.10;99.90;;;;;;5014659;28;20298;-59
2024/01/23 02:28:07;;;;;;;5.60;1.60;;;10.10;99.90;;;;;;5022123;28;20277;-58
2024/01/23 02:30:35;;;;;;;4.03;1.13;;;10.10;99.90;;;;;;5025468;28;20313;-57
2024/01/23 02:33:03;;;;;;;5.20;1.27;;;10.10;99.90;;;;;;5025795;28;20468;-58
2024/01/23 02:35:29;;;;;;;4.37;1.00;;;10.20;99.90;;;;;;5022446;28;20448;-59
2024/01/23 02:37:56;;;;;;;3.50;1.43;;;10.10;99.90;;;;;;5021971;28;20225;-58
2024/01/23 02:40:23;;;;;;;3.20;1.00;;;10.10;99.90;;;;;;5023704;28;20195;-58
2024/01/23 02:42:51;;;;;;;5.27;1.73;;;10.10;99.90;;;;;;5025393;28;20272;-58
2024/01/23 02:45:17;;;;;;;5.57;1.47;;;10.00;99.90;;;;;;5025116;28;20208;-58
2024/01/23 02:47:44;;;;;;;7.10;1.53;;;9.90;99.90;;;;;;5025010;28;20222;-57
2024/01/23 02:50:11;;;;;;;6.87;1.37;;;10.00;99.90;;;;;;5024703;28;20225;-59
2024/01/23 02:52:38;;;;;;;3.40;1.43;;;10.00;99.90;;;;;;5021774;28;20294;-57
2024/01/23 02:55:05;;;;;;;5.53;1.50;;;9.80;99.90;;;;;;5021664;28;20207;-57
2024/01/23 02:57:32;;;;;;;8.13;1.77;;;9.70;99.90;;;;;;5024261;28;20242;-56
2024/01/23 03:00:00;;;;;;;9.00;2.00;;;9.50;99.90;;;;;;5025008;28;20199;-58
2024/01/23 03:02:27;;;;;;;13.00;2.37;;;9.50;99.90;;;;;;5022527;28;20202;-57
2024/01/23 03:04:54;;;;;;;8.00;1.80;;;9.40;99.90;;;;;;5021472;28;20207;-58
2024/01/23 03:07:20;;;;;;;11.93;2.17;;;9.40;99.90;;;;;;5022530;28;20223;-57
2024/01/23 03:09:47;;;;;;;4.87;1.60;;;9.40;99.90;;;;;;5024850;28;20202;-59
2024/01/23 03:12:18;;;;;;;10.17;2.23;;;9.40;99.90;;;;;;5024361;28;20289;-59
2024/01/23 03:14:45;;;;;;;7.40;1.90;;;9.50;99.90;;;;;;5020925;28;20207;-59
2024/01/23 03:17:14;;;;;;;8.20;1.90;;;9.50;99.90;;;;;;5020912;28;20218;-57
2024/01/23 03:19:42;;;;;;;8.37;2.10;;;9.60;99.90;;;;;;5024674;28;20206;-56
2024/01/23 03:22:09;;;;;;;10.77;2.50;;;9.60;99.90;;;;;;5024651;28;20209;-56
2024/01/23 03:24:38;;;;;;;8.03;1.83;;;9.70;99.90;;;;;;5021185;28;20207;-57
2024/01/23 03:27:06;;;;;;;11.70;3.27;;;9.70;99.90;;;;;;5020761;28;20233;-57
2024/01/23 03:29:39;;;;;;;10.17;2.07;;;9.70;99.90;;;;;;5023762;28;20613;-57
2024/01/23 03:32:06;;;;;;;11.27;2.57;;;9.80;99.90;;;;;;5024344;28;20672;-58
2024/01/23 03:34:34;;;;;;;9.43;2.47;;;9.90;99.90;;;;;;5021415;28;20286;-56
2024/01/23 03:37:02;;;;;;;7.37;2.07;;;9.90;99.90;;;;;;5020782;28;20222;-57
2024/01/23 03:39:28;;;;;;;9.70;1.93;;;9.90;99.90;;;;;;5023155;28;20298;-58
2024/01/23 03:41:54;;;;;;;10.70;2.30;;;9.90;99.90;;;;;;5024614;28;20202;-58
2024/01/23 03:44:21;;;;;;;9.30;2.20;;;9.90;99.90;;;;;;5023143;28;20202;-57
2024/01/23 03:46:48;;;;;;;14.40;2.37;;;10.00;99.90;;;;;;5020691;28;20314;-58
2024/01/23 03:49:15;;;;;;;8.37;1.73;;;10.00;99.90;;;;;;5020860;28;20203;-58
2024/01/23 03:51:43;;;;;;;10.77;2.00;;;10.00;99.90;;;;;;5023706;28;20637;-58
2024/01/23 03:54:09;;;;;;;10.13;2.60;;;10.00;99.90;;;;;;5023997;28;20232;-58
2024/01/23 03:56:36;;;;;;;9.00;2.50;;;10.00;99.90;;;;;;5020019;28;20605;-58
2024/01/23 03:59:03;;;;;;;7.23;1.97;;;10.00;99.90;;;;;;5021010;28;20619;-55
2024/01/23 04:01:30;;;;;;;7.73;2.13;;;10.00;99.90;;;;;;5022798;28;20199;-56
2024/01/23 04:03:56;;;;;;;7.93;2.40;;;10.10;99.90;;;;;;5023860;28;20206;-54
2024/01/23 04:06:23;;;;;;;10.50;2.33;;;10.10;99.90;;;;;;5022049;28;20202;-55
2024/01/23 04:08:51;;;;;;;10.03;2.17;;;10.00;99.90;;;;;;5020216;28;20288;-56
2024/01/23 04:11:18;;;;;;;11.17;2.40;;;9.90;99.90;;;;;;5020700;28;20219;-57
2024/01/23 04:13:44;;;;;;;12.83;3.33;;;9.80;99.90;;;;;;5023883;28;20267;-55
2024/01/23 04:16:11;;;;;;;7.50;2.33;;;9.80;99.90;;;;;;5023342;28;20202;-55
2024/01/23 04:18:38;;;;;;;14.80;2.47;;;9.80;99.90;;;;;;5012000;28;20229;-56
2024/01/23 04:21:06;;;;;;;9.73;2.83;;;9.80;99.90;;;;;;5020236;28;20199;-55
2024/01/23 04:23:33;;;;;;;7.33;2.10;;;9.80;99.90;;;;;;5022696;28;20216;-55
2024/01/23 04:26:01;;;;;;;12.33;2.37;;;9.70;99.90;;;;;;5022539;28;20205;-55
2024/01/23 04:28:28;;;;;;;9.23;2.40;;;9.70;99.90;;;;;;5021222;28;20228;-55
2024/01/23 04:30:55;;;;;;;7.17;1.97;;;9.70;99.90;;;;;;5020104;28;20215;-55
2024/01/23 04:33:21;;;;;;;11.17;2.50;;;9.60;99.90;;;;;;5020788;28;20627;-55
2024/01/23 04:35:48;;;;;;;11.27;2.60;;;9.60;99.90;;;;;;5022974;28;20206;-57
2024/01/23 04:38:15;;;;;;;14.63;2.57;;;9.60;99.90;;;;;;5022849;28;20230;-56
2024/01/23 04:40:41;;;;;;;11.03;2.57;;;9.70;99.90;;;;;;5020235;28;20203;-55
2024/01/23 04:43:09;;;;;;;19.50;6.60;;;9.70;99.90;;;;;;5020051;28;20211;-55
2024/01/23 04:45:36;;;;;;;9.50;2.40;;;9.70;99.90;;;;;;5022668;28;20206;-55
2024/01/23 04:48:03;;;;;;;11.43;2.50;;;9.70;99.90;;;;;;5023132;28;20224;-58
2024/01/23 04:50:29;;;;;;;9.17;2.40;;;9.60;99.90;;;;;;5020798;28;20226;-55
2024/01/23 04:52:57;;;;;;;13.73;3.73;;;9.60;99.90;;;;;;5019561;28;20198;-55
2024/01/23 04:55:24;;;;;;;10.27;2.20;;;9.70;99.90;;;;;;5020919;28;20209;-55
2024/01/23 04:57:50;;;;;;;11.43;2.50;;;9.70;99.90;;;;;;5022788;28;20321;-57
2024/01/23 05:00:19;;;;;;;9.53;2.50;;;9.70;99.90;;;;;;5022754;28;20578;-56
2024/01/23 05:02:46;;;;;;;11.97;2.60;;;9.70;99.90;;;;;;5019575;28;20206;-55
2024/01/23 05:05:13;;;;;;;10.10;2.50;;;9.70;99.90;;;;;;5019370;28;20657;-55
2024/01/23 05:07:40;;;;;;;14.80;2.93;;;9.60;99.90;;;;;;5011390;28;20222;-55
2024/01/23 05:10:08;;;;;;;15.73;2.50;;;9.60;99.90;;;;;;5019815;28;20203;-56
2024/01/23 05:12:34;;;;;;;11.40;2.60;;;9.70;99.90;;;;;;5022170;28;20226;-56
2024/01/23 05:15:03;;;;;;;9.17;2.50;;;9.70;99.90;;;;;;5022966;28;20217;-56
2024/01/23 05:17:31;;;;;;;8.40;2.30;;;9.70;99.90;;;;;;5020409;28;20245;-55
2024/01/23 05:19:58;;;;;;;10.70;2.33;;;9.80;99.90;;;;;;5019347;28;20763;-55
2024/01/23 05:22:25;;;;;;;8.63;2.00;;;9.80;99.90;;;;;;5021060;28;20210;-57
2024/01/23 05:24:52;;;;;;;7.87;1.97;;;9.80;99.90;;;;;;5023091;28;20297;-55
2024/01/23 05:27:19;;;;;;;8.57;2.33;;;9.90;99.90;;;;;;5021894;28;20272;-55
2024/01/23 05:29:46;;;;;;;6.37;1.90;;;9.90;99.90;;;;;;5019505;28;20199;-56
2024/01/23 05:32:13;;;;;;;7.03;2.00;;;9.90;99.90;;;;;;5019207;28;20710;-55
2024/01/23 05:34:41;;;;;;;9.43;2.10;;;9.90;99.90;;;;;;5022447;28;20198;-56
2024/01/23 05:37:07;;;;;;;8.03;2.10;;;9.90;99.90;;;;;;5022549;28;20218;-55
2024/01/23 05:39:37;;;;;;;7.77;1.93;;;9.80;99.90;;;;;;5023832;28;20335;-55
2024/01/23 05:42:04;;;;;;;8.50;1.87;;;9.90;99.90;;;;;;5022962;28;20226;-56
2024/01/23 05:44:31;;;;;;;5.80;1.90;;;9.90;99.90;;;;;;5024904;28;20653;-55
2024/01/23 05:46:58;;;;;;;8.77;1.90;;;10.00;99.90;;;;;;5025604;28;20313;-56
2024/01/23 05:49:25;;;;;;;10.73;3.17;;;10.10;99.90;;;;;;5025021;28;20210;-55
2024/01/23 05:51:53;;;;;;;9.33;2.37;;;10.10;99.90;;;;;;5022737;28;20313;-56
2024/01/23 05:54:19;;;;;;;9.60;1.73;;;10.00;99.90;;;;;;5023418;28;20215;-57
2024/01/23 05:56:46;;;;;;;7.90;1.80;;;10.00;99.90;;;;;;5026296;28;20229;-55
2024/01/23 05:59:13;;;;;;;6.87;2.10;;;9.90;99.90;;;;;;5026202;28;20552;-55
2024/01/23 06:01:39;;;;;;;7.87;1.97;;;9.80;99.90;;;;;;5023410;28;20579;-56
2024/01/23 06:04:08;;;;;;;5.07;1.73;;;9.60;99.90;;;;;;5022576;28;20202;-56
2024/01/23 06:06:39;;;;;;;7.90;1.70;;;9.40;99.90;;;;;;5024926;28;20280;-56
2024/01/23 06:09:08;;;;;;;6.27;2.00;;;9.30;99.90;;;;;;5025969;28;20202;-56
2024/01/23 06:11:35;;;;;;;5.30;2.20;;;9.30;99.90;;;;;;5023103;28;20222;-56
2024/01/23 06:14:01;;;;;;;11.17;1.97;;;9.20;99.90;;;;;;5022386;28;20685;-56
2024/01/23 06:16:28;;;;;;;9.30;2.00;;;9.10;99.90;;;;;;5023527;28;20203;-57
2024/01/23 06:18:55;;;;;;;9.53;2.33;;;9.10;99.90;;;;;;5025596;28;20679;-55
2024/01/23 06:21:21;;;;;;;6.20;1.60;;;9.10;99.90;;;;;;5024850;28;20293;-56
2024/01/23 06:23:48;;;;;;;8.00;2.40;;;9.00;99.90;;;;;;5022209;28;20207;-56
2024/01/23 06:26:16;;;;;;;6.33;1.83;;;8.90;99.90;;;;;;5021989;28;20277;-56
2024/01/23 06:28:43;;;;;;;8.73;2.10;;;8.90;99.90;;;;;;5014188;28;20704;-56
2024/01/23 06:31:09;;;;;;;7.63;1.80;;;8.90;99.90;;;;;;5022528;28;20234;-55
2024/01/23 06:33:36;;;;;;;10.90;2.27;;;8.90;99.90;;;;;;5024761;28;20245;-57
2024/01/23 06:36:03;;;;;;;6.80;2.10;;;8.90;99.90;;;;;;5025393;28;20210;-55
2024/01/23 06:38:30;;;;;;;3.83;1.70;;;8.90;99.90;;;;;;5023772;28;20230;-55
2024/01/23 06:40:57;;;;;;;8.03;2.13;;;8.90;99.90;;;;;;5022131;28;20209;-55
2024/01/23 06:43:25;;;;;;;8.87;1.93;;;8.80;99.90;;;;;;5022721;28;20203;-57
2024/01/23 06:45:51;;;;;;;10.87;3.30;;;8.70;99.90;;;;;;5025364;28;20279;-56
2024/01/23 06:48:18;;;;;;;6.67;1.47;;;8.60;99.90;;;;;;5025293;28;20223;-56
2024/01/23 06:50:45;;;;;;;7.57;2.23;;;8.50;99.90;;;;;;5021226;28;20203;-56
2024/01/23 06:53:11;;;;;;;6.37;1.90;;;8.40;99.90;;;;;;5021859;28;20207;-54
2024/01/23 06:55:38;;;;;;;6.87;1.90;;;8.30;99.90;;;;;;5024014;28;20210;-56
2024/01/23 06:58:05;;;;;;;5.83;1.77;;;8.20;99.90;;;;;;5024851;28;20226;-57
2024/01/23 07:00:33;;;;;;;5.77;2.07;;;8.00;99.90;;;;;;5023189;28;20272;-55
2024/01/23 07:03:00;;;;;;;11.37;2.30;;;7.90;99.90;;;;;;5021497;28;20223;-55
2024/01/23 07:05:26;;;;;;;7.67;1.87;;;7.80;99.90;;;;;;5022710;28;20207;-55
2024/01/23 07:07:55;;;;;;;8.33;2.50;;;7.70;99.90;;;;;;5024553;28;20276;-56
2024/01/23 07:10:22;;;;;;;6.37;1.80;;;7.70;99.90;;;;;;5024042;28;20253;-56
2024/01/23 07:12:48;;;;;;;7.97;2.30;;;7.70;99.90;;;;;;5021529;28;20245;-55
2024/01/23 07:15:15;;;;;;;6.13;1.60;;;7.60;99.90;;;;;;5021379;28;20206;-54
2024/01/23 07:17:43;;;;;;;8.77;2.20;;;7.50;99.90;;;;;;5024061;28;20268;-56
2024/01/23 07:20:11;;;;;;;11.83;2.47;;;7.50;99.90;;;;;;5024469;28;20285;-55
2024/01/23 07:22:37;;;;;;;7.30;1.77;;;7.50;99.90;;;;;;5021581;28;20706;-56
2024/01/23 07:25:05;;;;;;;8.23;1.80;;;7.50;99.90;;;;;;5020636;28;20212;-54
2024/01/23 07:27:31;;;;;;;6.30;2.03;;;7.50;99.90;;;;;;5022562;28;20235;-58
2024/01/23 07:29:58;;;;;;;4.10;1.60;;;7.50;99.90;;;;;;5024510;28;20563;-56
2024/01/23 07:32:25;;;;;;;7.07;1.80;;;7.50;99.90;;;;;;5023174;28;20910;-56
2024/01/23 07:34:53;;;;;;;4.50;1.60;;;7.50;99.90;;;;;;5020742;28;20592;-57
2024/01/23 07:37:20;;;;;;;5.23;1.50;;;7.60;99.90;;;;;;5020768;28;20717;-58
2024/01/23 07:39:49;;;;;;;4.57;1.47;;;7.60;99.90;;;;;;5024012;28;20737;-56
2024/01/23 07:42:15;;;;;;;5.73;1.70;;;7.50;99.90;;;;;;5024211;28;20214;-56
2024/01/23 07:44:43;;;;;;;9.73;2.30;;;7.60;99.90;;;;;;5020817;28;20203;-58
2024/01/23 07:47:10;;;;;;;6.60;1.40;;;7.70;99.90;;;;;;5020258;28;20285;-58
2024/01/23 07:49:37;;;;;;;4.50;1.37;;;7.80;99.90;;;;;;5022865;28;20211;-57
2024/01/23 07:52:06;;;;;;;7.00;1.70;;;7.90;99.90;;;;;;5023853;28;20223;-58
2024/01/23 07:54:33;;;;;;;5.80;1.93;;;8.10;99.90;;;;;;5022163;28;20293;-57
2024/01/23 07:57:00;;;;;;;6.93;1.53;;;8.30;99.90;;;;;;5020000;28;20656;-57
2024/01/23 07:59:26;;;;;;;8.53;2.00;;;8.40;99.90;;;;;;5021287;28;20265;-58
2024/01/23 08:01:53;;;;;;;9.13;1.80;;;8.40;99.90;;;;;;5022640;28;20280;-57
2024/01/23 08:04:20;;;;;;;6.53;2.13;;;8.40;99.90;;;;;;5023596;28;20209;-59
2024/01/23 08:06:46;;;;;;;9.37;2.00;;;8.30;99.90;;;;;;5019995;28;20234;-58
2024/01/23 08:09:14;;;;;;;6.83;1.67;;;8.40;99.90;;;;;;5020434;28;20579;-57
2024/01/23 08:11:41;;;;;;;7.53;1.63;;;8.40;99.90;;;;;;5023085;28;20252;-56
2024/01/23 08:14:08;;;;;;;5.93;1.70;;;8.40;99.90;;;;;;5023669;28;20255;-57
2024/01/23 08:16:34;;;;;;;6.50;1.90;;;8.50;99.90;;;;;;5021261;28;20210;-57
2024/01/23 08:19:02;;;;;;;9.83;1.90;;;8.60;99.90;;;;;;5020305;28;20206;-58
2024/01/23 08:21:29;;;;;;;5.53;1.80;;;8.70;99.90;;;;;;5021156;28;20665;-57
2024/01/23 08:23:56;;;;;;;7.80;1.77;;;8.70;99.90;;;;;;5023388;28;20230;-58
2024/01/23 08:26:24;;;;;;;11.00;2.23;;;8.90;99.90;;;;;;5022816;28;20206;-58
2024/01/23 08:28:50;;;;;;;10.03;2.27;;;9.10;99.90;;;;;;5019939;28;20203;-59
2024/01/23 08:31:18;;;;;;;7.77;2.17;;;9.30;99.90;;;;;;5019853;28;20203;-58
2024/01/23 08:33:45;;;;;;;7.40;2.30;;;9.60;99.90;;;;;;5022943;28;20206;-60
2024/01/23 08:36:12;;;;;;;57.87;6.33;;;9.80;99.90;;;;;;5022958;28;20684;-59
2024/01/23 08:38:38;;;;;;;9.50;2.00;;;9.90;99.90;;;;;;5020525;28;20254;-57
2024/01/23 08:41:05;;;;;;;5.40;1.63;;;9.90;99.90;;;;;;5019675;28;20569;-57
2024/01/23 08:43:35;;;;;;;5.47;1.63;;;9.90;99.90;;;;;;5021098;28;20203;-57
2024/01/23 08:46:03;;;;;;;7.67;2.00;;;9.80;99.90;;;;;;5022776;28;20212;-57
2024/01/23 08:48:30;;;;;;;6.40;2.00;;;9.80;99.90;;;;;;5021664;28;20605;-56
2024/01/23 08:50:57;;;;;;;5.17;1.50;;;9.70;99.90;;;;;;5019899;28;20207;-57
2024/01/23 08:53:23;;;;;;;5.67;1.57;;;9.60;99.90;;;;;;5019961;28;20230;-58
2024/01/23 08:55:50;;;;;;;7.03;1.60;;;9.50;99.90;;;;;;5022948;28;20230;-57
2024/01/23 08:58:17;;;;;;;6.90;2.07;;;9.40;99.90;;;;;;5022994;28;20287;-56
2024/01/23 09:00:45;;;;;;;6.47;1.60;;;9.50;99.90;;;;;;5020055;28;20290;-58
2024/01/23 09:03:12;;;;;;;8.17;1.93;;;9.70;99.90;;;;;;5019646;28;20207;-56
2024/01/23 09:05:39;;;;;;;6.00;1.83;;;9.90;99.90;;;;;;5021863;28;20211;-56
2024/01/23 09:08:06;;;;;;;4.80;2.17;;;10.00;99.90;;;;;;5023370;28;20230;-57
2024/01/23 09:10:33;;;;;;;7.17;2.00;;;10.10;99.90;;;;;;5021478;28;20216;-56
2024/01/23 09:12:59;;;;;;;10.87;2.37;;;10.20;99.90;;;;;;5021133;28;20214;-58
2024/01/23 09:15:26;;;;;;;7.43;2.10;;;10.20;99.90;;;;;;5024031;28;20691;-56
2024/01/23 09:17:54;;;;;;;12.43;2.63;;;10.30;99.90;;;;;;5026944;28;20284;-56
2024/01/23 09:20:21;;;;;;;7.70;4.03;;;10.30;99.90;;;;;;5027234;28;20207;-56
2024/01/23 09:22:49;;;;;;;9.00;1.97;;;10.40;99.90;;;;;;5015316;28;20203;-59
2024/01/23 09:25:16;;;;;;;3.77;1.73;;;10.40;99.90;;;;;;5023064;28;20199;-58
2024/01/23 09:27:42;;;;;;;5.57;1.70;;;10.40;99.90;;;;;;5025920;28;20312;-59
2024/01/23 09:30:10;;;;;;;7.23;2.13;;;10.40;99.90;;;;;;5026514;28;20203;-55
2024/01/23 09:32:36;;;;;;;7.40;2.20;;;10.30;99.90;;;;;;5024374;28;20256;-56
2024/01/23 09:35:06;;;;;;;10.27;2.27;;;10.50;99.90;;;;;;5023211;28;20206;-57
2024/01/23 09:37:33;;;;;;;6.27;1.90;;;10.50;99.90;;;;;;5024081;28;20288;-56
2024/01/23 09:39:59;;;;;;;5.27;2.00;;;10.60;99.90;;;;;;5026600;28;20237;-57
2024/01/23 09:42:26;;;;;;;4.13;1.67;;;10.70;99.90;;;;;;5026091;28;20202;-58
2024/01/23 09:44:55;;;;;;;9.23;2.17;;;10.80;99.90;;;;;;5022775;28;20210;-57
2024/01/23 09:47:23;;;;;;;6.10;1.90;;;10.80;99.90;;;;;;5022548;28;20229;-57
2024/01/23 09:50:00;;;;;;;7.87;1.97;;;10.90;99.90;;;;;;5015197;28;20290;-59
2024/01/23 09:52:28;;;;;;;4.57;1.93;;;10.90;99.90;;;;;;5022034;28;20223;-58
2024/01/23 09:54:55;;;;;;;5.90;1.80;;;10.90;99.90;;;;;;5026251;28;20205;-58
2024/01/23 09:57:22;;;;;;;6.43;2.33;;;11.00;99.90;;;;;;5053731;22;20230;-59
2024/01/23 09:59:51;;;;;;;5.73;1.73;;;11.00;99.90;;;;;;5026335;28;20202;-60
2024/01/23 10:02:19;;;;;;;6.23;2.10;;;11.00;99.90;;;;;;5033801;28;20618;-60
2024/01/23 10:04:48;;;;;;;5.40;1.70;;;11.00;99.90;;;;;;5033882;28;20633;-59
2024/01/23 10:07:15;;;;;;;5.33;1.63;;;11.00;99.90;;;;;;5033541;28;20603;-60
2024/01/23 10:09:48;;;;;;;6.10;1.67;;;11.00;99.90;;;;;;5034684;28;20206;-60
2024/01/23 10:12:15;;;;;;;9.33;2.10;;;11.10;99.90;;;;;;5033589;28;20229;-60
2024/01/23 10:14:43;;;;;;;6.70;1.77;;;11.00;99.90;;;;;;5033710;28;20289;-60
2024/01/23 10:17:10;;;;;;;7.33;2.17;;;11.00;99.90;;;;;;5033468;28;20230;-60
2024/01/23 10:19:37;;;;;;;16.23;2.77;;;11.10;99.90;;;;;;5033613;28;20585;-61
2024/01/23 10:22:05;;;;;;;17.80;3.47;;;11.20;99.90;;;;;;5033536;28;20631;-60
2024/01/23 10:24:31;;;;;;;5.20;1.70;;;11.30;99.90;;;;;;5032263;28;20696;-60
2024/01/23 10:26:59;;;;;;;8.57;1.97;;;11.30;99.90;;;;;;5033053;28;20699;-60
2024/01/23 10:29:26;;;;;;;11.70;2.90;;;11.40;99.90;;;;;;5033597;28;20206;-63
2024/01/23 10:31:52;;;;;;;4.47;1.57;;;11.30;99.90;;;;;;5033540;28;20230;-60
2024/01/23 10:34:20;;;;;;;6.27;1.90;;;11.30;99.90;;;;;;5033303;28;20279;-60
2024/01/23 10:36:47;;;;;;;5.53;1.17;;;11.30;99.90;;;;;;5032983;28;20587;-60
2024/01/23 10:39:14;;;;;;;5.97;1.70;;;11.30;99.90;;;;;;5033298;28;20296;-61
2024/01/23 10:41:42;;;;;;;4.17;1.57;;;11.20;99.90;;;;;;5033102;28;20288;-60
2024/01/23 10:44:12;;;;;;;7.60;1.40;;;11.20;99.90;;;;;;5033254;28;20203;-60
2024/01/23 10:46:39;;;;;;;7.10;1.70;;;11.20;99.90;;;;;;5032953;28;20392;-60
2024/01/23 10:49:06;;;;;;;7.03;1.73;;;11.20;99.90;;;;;;5033034;28;20264;-61
2024/01/23 10:51:37;;;;;;;4.17;1.50;;;11.20;99.90;;;;;;5033109;28;20672;-61
2024/01/23 10:54:09;;;;;;;6.30;1.60;;;11.20;99.90;;;;;;5032987;28;20792;-61
2024/01/23 10:56:42;;;;;;;4.47;1.90;;;11.40;99.90;;;;;;5032687;28;20311;-61
2024/01/23 10:59:18;;;;;;;5.83;1.70;;;11.50;99.90;;;;;;5032627;28;20577;-61
2024/01/23 11:01:46;;;;;;;8.00;3.10;;;11.60;99.90;;;;;;5032623;28;20241;-61
2024/01/23 11:04:15;;;;;;;6.67;1.63;;;11.60;99.90;;;;;;5033113;28;20199;-61
2024/01/23 11:06:50;;;;;;;7.53;1.90;;;11.60;99.90;;;;;;5032741;28;20210;-61
2024/01/23 11:09:21;;;;;;;5.13;1.57;;;11.70;99.90;;;;;;5021277;28;20202;-61
2024/01/23 11:11:58;;;;;;;6.93;1.30;;;11.70;99.90;;;;;;5032090;28;20206;-61
2024/01/23 11:14:29;;;;;;;5.67;2.13;;;11.70;99.90;;;;;;5031937;28;20729;-61
2024/01/23 11:17:03;;;;;;;7.47;2.07;;;11.60;99.90;;;;;;5032074;28;20264;-61
2024/01/23 11:19:30;;;;;;;5.63;1.70;;;11.60;99.90;;;;;;5031976;28;20228;-61
2024/01/23 11:22:02;;;;;;;5.50;1.97;;;11.60;99.90;;;;;;5032153;28;20703;-66
2024/01/23 11:24:42;;;;;;;10.17;1.97;;;11.80;99.90;;;;;;5031957;28;20313;-63
2024/01/23 11:27:18;;;;;;;5.53;2.00;;;12.10;99.90;;;;;;5031847;28;20664;-62
2024/01/23 11:29:47;;;;;;;9.07;1.83;;;12.30;99.90;;;;;;5032369;28;20237;-62
2024/01/23 11:32:19;;;;;;;6.27;2.13;;;12.40;99.90;;;;;;5032284;28;20206;-63
2024/01/23 11:34:46;;;;;;;10.53;3.50;;;12.30;99.90;;;;;;5032247;28;20214;-65
2024/01/23 11:37:43;;;;;;;7.37;1.97;;;12.10;99.90;;;;;;5031525;28;20241;-64
2024/01/23 11:40:33;;;;;;;9.10;2.20;;;11.70;99.90;;;;;;5031348;28;20208;-63
2024/01/23 11:43:00;;;;;;;10.13;2.43;;;11.40;99.90;;;;;;5025024;28;20202;-62
2024/01/23 11:45:30;;;;;;;6.47;1.90;;;11.20;99.90;;;;;;5031692;28;20283;-63
2024/01/23 11:47:57;;;;;;;12.20;3.03;;;11.00;99.90;;;;;;5030295;28;20233;-62
2024/01/23 11:50:26;;;;;;;11.77;2.60;;;10.90;99.90;;;;;;5031583;28;20217;-62
2024/01/23 11:52:54;;;;;;;8.83;2.50;;;10.80;99.90;;;;;;5031520;28;20234;-62
2024/01/23 11:55:22;;;;;;;11.40;3.67;;;10.70;99.90;;;;;;5031744;28;20210;-63
2024/01/23 11:57:49;;;;;;;8.37;2.07;;;10.60;99.90;;;;;;5036312;28;20291;-59
2024/01/23 12:00:18;;;;;;;7.87;2.87;;;10.70;99.90;;;;;;5031823;28;20214;-60
2024/01/23 12:02:47;;;;;;;8.67;2.63;;;10.90;99.90;;;;;;5032098;28;20206;-61
2024/01/23 12:05:14;;;;;;;7.63;2.43;;;11.00;99.90;;;;;;5032086;28;20301;-63
2024/01/23 12:07:42;;;;;;;10.80;2.23;;;11.20;99.90;;;;;;5032058;28;20222;-60
2024/01/23 12:10:10;;;;;;;9.10;2.43;;;11.30;99.90;;;;;;5032163;28;20322;-60
2024/01/23 12:12:37;;;;;;;11.03;2.53;;;11.30;99.90;;;;;;5031608;28;20268;-60
2024/01/23 12:15:05;;;;;;;10.10;2.93;;;11.30;99.90;;;;;;5031580;28;20214;-58
2024/01/23 12:17:32;;;;;;;12.43;2.47;;;11.40;99.90;;;;;;5031209;28;20222;-58
2024/01/23 12:20:04;;;;;;;11.60;2.27;;;11.50;99.90;;;;;;5031933;28;20210;-58
2024/01/23 12:22:31;;;;;;;9.43;2.30;;;11.40;99.90;;;;;;5031688;28;20190;-58
2024/01/23 12:24:58;;;;;;;10.73;2.00;;;11.40;99.90;;;;;;5031663;28;20564;-58
2024/01/23 12:27:25;;;;;;;10.57;2.87;;;11.40;99.90;;;;;;5031307;28;20595;-60
2024/01/23 12:29:53;;;;;;;10.03;2.03;;;11.30;99.90;;;;;;5031860;28;20206;-59
2024/01/23 12:32:19;;;;;;;9.43;1.83;;;11.30;99.90;;;;;;5031310;28;20241;-59
2024/01/23 12:34:47;;;;;;;10.23;4.00;;;11.20;99.90;;;;;;5031336;28;20225;-59
2024/01/23 12:37:15;;;;;;;9.63;2.43;;;11.20;99.90;;;;;;5031491;28;20226;-58
2024/01/23 12:39:43;;;;;;;9.93;2.03;;;11.20;99.90;;;;;;5031697;28;20202;-59
2024/01/23 12:42:10;;;;;;;10.63;2.30;;;11.40;99.90;;;;;;5031326;28;20210;-59
2024/01/23 12:44:37;;;;;;;13.87;2.17;;;11.40;99.90;;;;;;5031399;28;20245;-59
2024/01/23 12:47:07;;;;;;;11.00;3.30;;;11.50;99.90;;;;;;5030664;28;20267;-59
2024/01/23 12:49:37;;;;;;;6.60;2.30;;;11.60;99.90;;;;;;5031333;28;20835;-59